createdAt,value
2018-07-06T00:00:00.507Z,2.00
2018-07-06T00:02:40.263Z,1.87
2018-07-06T00:05:20.138Z,1.73
2018-07-06T00:07:59.824Z,1.97
2018-07-06T00:10:39.524Z,2.13
2018-07-06T00:13:19.387Z,2.27
2018-07-06T00:15:59.439Z,3.73
2018-07-06T00:18:39.167Z,2.20
2018-07-06T00:21:19.181Z,1.70
2018-07-06T00:23:59.002Z,2.40
2018-07-06T00:26:38.731Z,3.20
2018-07-06T00:29:18.611Z,2.90
2018-07-06T00:31:58.599Z,2.60
2018-07-06T00:34:38.459Z,2.20
2018-07-06T00:37:18.349Z,3.17
2018-07-06T00:39:58.256Z,3.30
2018-07-06T00:42:38.078Z,2.73
2018-07-06T00:45:17.867Z,3.20
2018-07-06T00:47:57.805Z,2.23
2018-07-06T00:50:37.430Z,3.47
2018-07-06T00:53:17.206Z,2.50
2018-07-06T00:55:57.236Z,2.90
2018-07-06T00:58:37.142Z,2.90
2018-07-06T01:01:16.917Z,2.80
2018-07-06T01:03:56.777Z,3.80
2018-07-06T01:06:36.619Z,2.40
2018-07-06T01:09:10.335Z,3.10
2018-07-06T01:11:50.099Z,4.27
2018-07-06T01:14:23.893Z,3.17
2018-07-06T01:17:03.598Z,3.97
2018-07-06T01:19:43.446Z,2.90
2018-07-06T01:22:23.124Z,4.00
2018-07-06T01:24:56.874Z,3.67
2018-07-06T01:27:36.724Z,3.83
2018-07-06T01:30:16.613Z,4.23
2018-07-06T01:32:56.523Z,3.27
2018-07-06T01:35:36.438Z,3.20
2018-07-06T01:38:16.272Z,7.23
2018-07-06T01:40:56.249Z,4.43
2018-07-06T01:43:36.085Z,3.97
2018-07-06T01:46:15.949Z,4.77
2018-07-06T01:48:55.839Z,3.60
2018-07-06T01:51:35.619Z,3.33
2018-07-06T01:54:15.322Z,4.07
2018-07-06T01:56:55.313Z,4.33
2018-07-06T01:59:35.204Z,4.73
2018-07-06T02:02:14.970Z,4.40
2018-07-06T02:04:54.930Z,6.00
2018-07-06T02:07:34.804Z,5.00
2018-07-06T02:10:14.623Z,4.93
2018-07-06T02:12:54.391Z,5.43
2018-07-06T02:15:34.271Z,6.17
2018-07-06T02:18:14.043Z,4.63
2018-07-06T02:20:53.859Z,5.73
2018-07-06T02:23:33.739Z,4.80
2018-07-06T02:26:13.633Z,5.20
2018-07-06T02:28:53.572Z,4.90
2018-07-06T02:31:33.394Z,5.97
2018-07-06T02:34:13.225Z,5.90
2018-07-06T02:36:53.589Z,4.70
2018-07-06T02:39:33.396Z,5.60
2018-07-06T02:42:13.269Z,6.20
2018-07-06T02:44:52.975Z,5.83
2018-07-06T02:47:32.859Z,5.80
2018-07-06T02:50:12.589Z,5.93
2018-07-06T02:52:52.476Z,6.43
2018-07-06T02:55:32.381Z,5.63
2018-07-06T02:58:06.292Z,5.30
2018-07-06T03:00:46.120Z,6.27
2018-07-06T03:03:25.965Z,5.83
2018-07-06T03:06:05.921Z,7.80
2018-07-06T03:08:45.721Z,7.17
2018-07-06T03:11:25.485Z,6.37
2018-07-06T03:14:05.273Z,7.00
2018-07-06T03:16:45.040Z,9.17
2018-07-06T03:19:25.004Z,7.40
2018-07-06T03:22:04.698Z,6.57
2018-07-06T03:24:44.464Z,8.63
2018-07-06T03:27:24.413Z,8.33
2018-07-06T03:30:04.289Z,6.17
2018-07-06T03:32:44.150Z,6.17
2018-07-06T03:35:24.021Z,6.33
2018-07-06T03:38:03.894Z,7.27
2018-07-06T03:40:43.847Z,6.03
2018-07-06T03:43:23.619Z,7.07
2018-07-06T03:46:03.474Z,8.30
2018-07-06T03:48:43.319Z,6.33
2018-07-06T03:51:23.302Z,8.30
2018-07-06T03:54:03.147Z,8.03
2018-07-06T03:56:42.963Z,6.67
2018-07-06T03:59:22.785Z,8.73
2018-07-06T04:02:02.716Z,6.77
2018-07-06T04:04:42.751Z,9.17
2018-07-06T04:07:22.529Z,11.90
2018-07-06T04:10:02.391Z,8.53
2018-07-06T04:12:42.263Z,10.57
2018-07-06T04:15:22.106Z,10.77
2018-07-06T04:18:01.842Z,7.27
2018-07-06T04:20:41.507Z,12.37
2018-07-06T04:23:21.279Z,11.23
2018-07-06T04:26:01.164Z,11.13
2018-07-06T04:28:41.115Z,10.70
2018-07-06T04:31:20.891Z,9.87
2018-07-06T04:34:00.672Z,9.13
2018-07-06T04:36:40.411Z,10.87
2018-07-06T04:39:20.153Z,9.23
2018-07-06T04:41:59.984Z,11.90
2018-07-06T04:44:39.967Z,11.87
2018-07-06T04:47:19.848Z,11.10
2018-07-06T04:49:59.679Z,10.87
2018-07-06T04:52:33.492Z,10.47
2018-07-06T04:55:13.215Z,12.73
2018-07-06T04:57:52.894Z,9.43
2018-07-06T05:00:32.917Z,8.53
2018-07-06T05:03:13.015Z,11.10
2018-07-06T05:05:52.893Z,12.43
2018-07-06T05:08:32.850Z,11.50
2018-07-06T05:11:12.623Z,9.10
2018-07-06T05:13:52.577Z,10.03
2018-07-06T05:16:32.528Z,15.63
2018-07-06T05:19:12.383Z,8.70
2018-07-06T05:21:52.312Z,9.07
2018-07-06T05:24:32.016Z,9.60
2018-07-06T05:27:11.790Z,10.43
2018-07-06T05:29:51.561Z,14.13
2018-07-06T05:32:31.467Z,8.47
2018-07-06T05:35:11.473Z,10.33
2018-07-06T05:37:51.569Z,13.77
2018-07-06T05:40:31.412Z,9.43
2018-07-06T05:43:11.243Z,10.87
2018-07-06T05:45:51.129Z,11.43
2018-07-06T05:48:30.708Z,11.90
2018-07-06T05:51:10.866Z,12.80
2018-07-06T05:53:44.657Z,10.33
2018-07-06T05:56:24.394Z,9.27
2018-07-06T05:59:04.083Z,11.17
2018-07-06T06:01:43.992Z,11.27
2018-07-06T06:04:23.758Z,7.83
2018-07-06T06:07:03.711Z,8.00
2018-07-06T06:09:32.007Z,10.17
2018-07-06T06:12:00.325Z,8.53
2018-07-06T06:14:28.796Z,15.90
2018-07-06T06:16:57.138Z,10.43
2018-07-06T06:19:25.587Z,10.57
2018-07-06T06:21:53.933Z,13.37
2018-07-06T06:24:22.282Z,12.40
2018-07-06T06:26:50.687Z,10.00
2018-07-06T06:29:19.109Z,12.40
2018-07-06T06:31:47.661Z,12.10
2018-07-06T06:34:16.414Z,12.73
2018-07-06T06:36:45.383Z,11.90
2018-07-06T06:39:14.021Z,11.05
2018-07-06T06:41:42.436Z,9.70
2018-07-06T06:44:10.710Z,12.53
2018-07-06T06:46:39.206Z,10.60
2018-07-06T06:49:07.631Z,8.43
2018-07-06T06:51:35.976Z,12.30
2018-07-06T06:54:04.142Z,9.77
2018-07-06T06:56:33.131Z,12.27
2018-07-06T06:59:01.340Z,10.33
2018-07-06T07:01:29.605Z,11.70
2018-07-06T07:03:58.307Z,9.37
2018-07-06T07:06:26.745Z,8.93
2018-07-06T07:08:55.314Z,8.70
2018-07-06T07:11:23.663Z,9.23
2018-07-06T07:13:52.249Z,9.63
2018-07-06T07:16:20.466Z,9.10
2018-07-06T07:18:48.890Z,11.17
2018-07-06T07:21:17.238Z,9.07
2018-07-06T07:23:45.786Z,9.10
2018-07-06T07:26:14.215Z,9.00
2018-07-06T07:28:43.106Z,12.27
2018-07-06T07:31:11.431Z,9.30
2018-07-06T07:33:39.999Z,11.63
2018-07-06T07:36:08.335Z,8.93
2018-07-06T07:38:37.395Z,10.37
2018-07-06T07:41:05.819Z,9.80
2018-07-06T07:43:34.226Z,8.90
2018-07-06T07:46:02.628Z,8.20
2018-07-06T07:48:30.987Z,10.57
2018-07-06T07:51:10.670Z,8.57
2018-07-06T07:53:50.639Z,12.87
2018-07-06T07:56:19.060Z,8.07
2018-07-06T07:58:47.570Z,8.73
2018-07-06T08:01:16.275Z,8.70
2018-07-06T08:03:44.563Z,9.30
2018-07-06T08:06:14.048Z,7.43
2018-07-06T08:08:43.975Z,7.13
2018-07-06T08:11:12.335Z,6.43
2018-07-06T08:13:41.640Z,7.50
2018-07-06T08:16:10.820Z,7.93
2018-07-06T08:18:39.233Z,8.27
2018-07-06T08:21:07.719Z,8.50
2018-07-06T08:23:36.164Z,8.90
2018-07-06T08:26:04.515Z,7.77
2018-07-06T08:28:32.989Z,6.67
2018-07-06T08:31:01.340Z,10.43
2018-07-06T08:33:30.803Z,8.53
2018-07-06T08:37:10.383Z,7.50
2018-07-06T08:39:39.018Z,9.10
2018-07-06T08:42:07.212Z,7.87
2018-07-06T08:44:35.562Z,6.87
2018-07-06T08:47:04.139Z,6.83
2018-07-06T08:49:32.512Z,7.50
2018-07-06T08:52:00.575Z,8.33
2018-07-06T08:54:29.128Z,5.30
2018-07-06T08:56:57.472Z,6.83
2018-07-06T08:59:25.921Z,6.43
2018-07-06T09:01:54.095Z,8.33
2018-07-06T09:04:22.607Z,8.17
2018-07-06T09:06:51.382Z,7.37
2018-07-06T09:09:20.956Z,7.87
2018-07-06T09:11:49.520Z,7.97
2018-07-06T09:14:18.455Z,7.47
2018-07-06T09:16:46.831Z,5.00
2018-07-06T09:19:15.234Z,5.90
2018-07-06T09:21:43.567Z,6.47
2018-07-06T09:24:11.767Z,6.27
2018-07-06T09:26:40.794Z,9.53
2018-07-06T09:29:09.175Z,6.47
2018-07-06T09:31:37.531Z,7.40
2018-07-06T09:34:05.897Z,8.30
2018-07-06T09:36:34.251Z,6.13
2018-07-06T09:39:02.590Z,5.90
2018-07-06T09:41:31.459Z,6.10
2018-07-06T09:43:59.820Z,6.60
2018-07-06T09:46:28.371Z,7.50
2018-07-06T09:48:56.727Z,6.43
2018-07-06T09:51:25.322Z,6.97
2018-07-06T09:53:53.654Z,7.77
2018-07-06T09:56:21.999Z,6.03
2018-07-06T09:58:50.895Z,5.93
2018-07-06T10:01:19.376Z,5.87
2018-07-06T10:03:47.786Z,5.67
2018-07-06T10:06:16.737Z,4.83
2018-07-06T10:08:44.802Z,6.83
2018-07-06T10:11:13.195Z,6.30
2018-07-06T10:13:41.652Z,7.73
2018-07-06T10:16:10.895Z,4.90
2018-07-06T10:18:39.418Z,5.30
2018-07-06T10:21:08.715Z,6.83
2018-07-06T10:23:37.207Z,5.20
2018-07-06T10:26:05.652Z,5.00
2018-07-06T10:30:51.797Z,5.73
2018-07-06T10:33:20.293Z,5.17
2018-07-06T10:35:48.465Z,5.03
2018-07-06T10:38:16.810Z,5.17
2018-07-06T10:40:45.176Z,7.00
2018-07-06T10:43:13.771Z,9.77
2018-07-06T10:45:42.191Z,9.90
2018-07-06T10:48:11.168Z,10.50
2018-07-06T10:50:39.846Z,8.63
2018-07-06T10:53:08.438Z,12.60
2018-07-06T10:55:36.824Z,9.20
2018-07-06T10:58:05.435Z,11.17
2018-07-06T11:00:33.828Z,9.27
2018-07-06T11:03:18.168Z,9.70
2018-07-06T11:05:47.008Z,9.63
2018-07-06T11:08:15.429Z,9.93
2018-07-06T11:10:43.808Z,9.30
2018-07-06T11:13:12.177Z,9.00
2018-07-06T11:15:40.276Z,8.53
2018-07-06T11:18:08.917Z,7.67
2018-07-06T11:20:37.279Z,9.30
2018-07-06T11:23:05.670Z,7.80
2018-07-06T11:25:34.136Z,7.30
2018-07-06T11:28:02.536Z,6.90
2018-07-06T11:30:31.037Z,7.37
2018-07-06T13:18:13.897Z,9.07
2018-07-06T13:20:41.962Z,5.93
2018-07-06T13:23:10.024Z,6.70
2018-07-06T13:25:38.107Z,7.80
2018-07-06T13:28:06.178Z,5.23
2018-07-06T13:30:34.251Z,5.63
2018-07-06T13:33:02.326Z,18.87
2018-07-06T13:35:30.511Z,19.50
2018-07-06T13:37:58.616Z,21.20
2018-07-06T13:40:26.699Z,18.20
2018-07-06T13:42:54.797Z,22.03
2018-07-06T13:45:22.902Z,16.33
2018-07-06T13:47:50.977Z,15.87
2018-07-06T13:50:19.253Z,18.03
2018-07-06T13:52:47.359Z,20.17
2018-07-06T13:55:15.538Z,18.73
2018-07-06T13:57:45.524Z,15.13
2018-07-06T14:00:14.224Z,17.07
2018-07-06T14:02:42.315Z,20.10
2018-07-06T14:05:10.391Z,15.87
2018-07-06T14:07:38.555Z,14.43
2018-07-06T14:10:06.650Z,15.67
2018-07-06T14:12:34.704Z,14.57
2018-07-06T14:15:03.747Z,14.93
2018-07-06T14:17:32.842Z,14.90
2018-07-06T14:20:00.922Z,12.13
2018-07-06T14:22:29.009Z,13.77
2018-07-06T14:24:57.092Z,14.47
2018-07-06T14:27:25.887Z,13.50
2018-07-06T14:29:53.982Z,12.63
2018-07-06T14:32:22.054Z,13.47
2018-07-06T14:34:50.224Z,15.00
2018-07-06T14:37:18.272Z,11.63
2018-07-06T14:39:46.393Z,12.20
2018-07-06T14:42:14.563Z,9.20
2018-07-06T14:44:43.147Z,11.83
2018-07-06T14:47:11.391Z,11.13
2018-07-06T14:49:39.506Z,9.37
2018-07-06T14:52:07.838Z,9.40
2018-07-06T14:54:36.378Z,7.47
2018-07-06T14:57:04.544Z,4.60
2018-07-06T14:59:33.942Z,5.70
2018-07-06T15:02:02.057Z,4.90
2018-07-06T15:04:30.118Z,5.37
2018-07-06T15:06:58.434Z,7.63
2018-07-06T15:09:26.490Z,3.13
2018-07-06T15:11:54.553Z,4.20
2018-07-06T15:14:22.632Z,4.23
2018-07-06T15:16:50.731Z,3.67
2018-07-06T15:19:18.817Z,3.57
2018-07-06T15:21:47.718Z,3.00
2018-07-06T15:24:15.811Z,3.10
2018-07-06T15:26:43.880Z,3.50
2018-07-06T15:29:12.038Z,3.90
2018-07-06T15:31:40.301Z,3.33
2018-07-06T15:34:08.378Z,2.87
2018-07-06T15:36:36.530Z,3.07
2018-07-06T15:39:05.128Z,2.77
2018-07-06T15:41:33.193Z,3.23
2018-07-06T15:44:01.368Z,3.80
2018-07-06T15:46:29.736Z,3.67
2018-07-06T15:48:57.767Z,6.40
2018-07-06T15:51:25.831Z,3.20
2018-07-06T15:53:54.023Z,3.70
2018-07-06T15:56:22.456Z,5.10
2018-07-06T15:58:50.637Z,3.00
2018-07-06T16:01:18.741Z,6.83
2018-07-06T16:03:46.884Z,3.97
2018-07-06T16:06:14.935Z,4.87
2018-07-06T16:08:43.062Z,5.13
2018-07-06T16:11:11.148Z,5.03
2018-07-06T16:13:39.363Z,6.63
2018-07-06T16:16:07.460Z,3.60
2018-07-06T16:18:35.712Z,2.73
2018-07-06T16:21:03.839Z,4.27
2018-07-06T16:23:31.907Z,3.43
2018-07-06T16:26:00.000Z,3.50
2018-07-06T16:28:28.107Z,7.27
2018-07-06T16:30:56.174Z,4.30
2018-07-06T16:33:24.260Z,11.87
2018-07-06T16:35:52.321Z,5.20
2018-07-06T16:38:20.417Z,4.67
2018-07-06T16:40:48.499Z,4.97
2018-07-06T16:43:16.585Z,5.17
2018-07-06T16:45:44.658Z,5.30
2018-07-06T16:48:12.802Z,6.47
2018-07-06T16:50:40.871Z,4.33
2018-07-06T16:53:09.028Z,6.53
2018-07-06T16:55:37.171Z,3.10
2018-07-06T16:58:05.317Z,2.57
2018-07-06T17:00:33.435Z,4.20
2018-07-06T17:03:01.540Z,4.73
2018-07-06T17:05:29.688Z,4.30
2018-07-06T17:07:57.763Z,9.37
2018-07-06T17:10:26.063Z,3.30
2018-07-06T17:12:54.198Z,2.70
2018-07-06T17:15:22.318Z,3.63
2018-07-06T17:17:50.379Z,3.47
2018-07-06T17:20:18.531Z,5.50
2018-07-06T17:22:46.920Z,4.97
2018-07-06T17:25:15.025Z,6.10
2018-07-06T17:27:43.099Z,4.90
2018-07-06T17:30:11.259Z,5.40
2018-07-06T17:32:39.322Z,5.57
2018-07-06T17:35:07.383Z,3.97
2018-07-06T17:37:35.470Z,5.97
2018-07-06T17:40:03.565Z,5.77
2018-07-06T17:42:31.634Z,6.20
2018-07-06T17:44:59.700Z,5.87
2018-07-06T17:47:27.773Z,6.53
2018-07-06T17:49:55.923Z,5.93
2018-07-06T17:52:23.980Z,5.73
2018-07-06T17:54:52.088Z,7.43
2018-07-06T17:57:20.162Z,6.27
2018-07-06T17:59:48.246Z,5.83
2018-07-06T18:02:16.310Z,9.30
2018-07-06T18:04:44.441Z,10.80
2018-07-06T18:07:12.662Z,6.77
2018-07-06T18:09:40.705Z,5.57
2018-07-06T18:12:09.093Z,10.17
2018-07-06T18:14:37.114Z,7.17
2018-07-06T18:17:05.311Z,6.23
2018-07-06T18:19:33.519Z,6.23
2018-07-06T18:22:01.759Z,7.23
2018-07-06T18:24:31.077Z,9.93
2018-07-06T18:26:59.884Z,5.77
2018-07-06T18:29:27.965Z,8.87
2018-07-06T18:31:56.038Z,5.83
2018-07-06T18:34:24.410Z,5.70
2018-07-06T18:36:52.486Z,6.97
2018-07-06T18:39:20.606Z,6.70
2018-07-06T18:41:48.918Z,6.40
2018-07-06T18:44:17.137Z,9.60
2018-07-06T18:46:45.499Z,5.93
2018-07-06T18:49:13.840Z,6.90
2018-07-06T18:51:41.899Z,8.87
2018-07-06T18:54:10.279Z,5.93
2018-07-06T18:56:38.360Z,6.83
2018-07-06T18:59:07.212Z,6.40
2018-07-06T19:01:35.363Z,8.07
2018-07-06T19:04:03.586Z,8.03
2018-07-06T19:06:31.862Z,7.07
2018-07-06T19:09:00.867Z,5.43
2018-07-06T19:11:29.054Z,4.37
2018-07-06T19:13:57.121Z,7.40
2018-07-06T19:16:25.774Z,4.83
2018-07-06T19:18:53.929Z,11.43
2018-07-06T19:21:22.334Z,6.97
2018-07-06T19:23:50.398Z,6.70
2018-07-06T19:26:18.471Z,5.97
2018-07-06T19:28:46.739Z,5.77
2018-07-06T19:31:15.734Z,10.30
2018-07-06T19:33:43.935Z,10.63
2018-07-06T19:36:12.428Z,8.23
2018-07-06T19:38:41.101Z,4.73
2018-07-06T19:41:09.187Z,6.40
2018-07-06T19:43:37.254Z,7.50
2018-07-06T19:46:06.787Z,5.37
2018-07-06T19:48:34.951Z,6.73
2018-07-06T19:51:03.102Z,5.23
2018-07-06T19:53:31.176Z,8.40
2018-07-06T19:55:59.383Z,6.80
2018-07-06T19:58:27.524Z,7.70
2018-07-06T20:00:55.581Z,5.17
2018-07-06T20:03:23.668Z,10.27
2018-07-06T20:05:51.730Z,6.20
2018-07-06T20:08:19.805Z,5.60
2018-07-06T20:10:48.181Z,10.03
2018-07-06T20:13:16.351Z,6.50
2018-07-06T20:15:44.453Z,6.90
2018-07-06T20:18:12.629Z,6.63
2018-07-06T20:20:40.796Z,11.47
2018-07-06T20:23:08.873Z,6.67
2018-07-06T20:25:37.075Z,5.63
2018-07-06T20:28:05.335Z,5.67
2018-07-06T20:30:33.478Z,8.37
2018-07-06T20:33:01.559Z,9.63
2018-07-06T20:35:29.634Z,5.30
2018-07-06T20:37:57.698Z,9.50
2018-07-06T20:40:25.876Z,7.63
2018-07-06T20:42:53.933Z,6.33
2018-07-06T20:45:22.194Z,9.00
2018-07-06T20:47:50.317Z,9.03
2018-07-06T20:50:18.392Z,7.63
2018-07-06T20:52:46.645Z,5.03
2018-07-06T20:55:14.710Z,5.73
2018-07-06T20:57:42.817Z,5.53
2018-07-06T21:00:10.843Z,10.07
2018-07-06T21:02:39.077Z,5.87
2018-07-06T21:05:07.150Z,8.03
2018-07-06T21:07:35.338Z,10.60
2018-07-06T21:10:03.458Z,5.73
2018-07-06T21:12:31.537Z,6.97
2018-07-06T21:14:59.638Z,7.60
2018-07-06T21:17:27.715Z,5.07
2018-07-06T21:19:55.944Z,7.30
2018-07-06T21:22:24.093Z,8.90
2018-07-06T21:24:52.417Z,5.40
2018-07-06T21:27:22.401Z,8.40
2018-07-06T21:29:50.493Z,5.17
2018-07-06T21:32:18.564Z,6.37
2018-07-06T21:50:25.032Z,10.10
2018-07-06T21:52:53.516Z,7.00
2018-07-06T21:55:21.632Z,10.10
2018-07-06T21:57:49.730Z,5.97
2018-07-06T22:00:22.300Z,6.97
2018-07-06T22:02:50.416Z,6.80
2018-07-06T22:05:18.503Z,5.07
2018-07-06T22:07:46.591Z,6.00
2018-07-06T22:10:14.650Z,6.53
2018-07-06T22:12:42.790Z,8.17
2018-07-06T22:15:10.879Z,6.33
2018-07-06T22:17:39.202Z,5.60
2018-07-06T22:20:07.310Z,6.73
2018-07-06T22:22:35.532Z,6.53
2018-07-06T22:25:03.563Z,8.70
2018-07-06T22:27:32.138Z,5.60
2018-07-06T22:30:00.322Z,6.33
2018-07-06T22:32:28.509Z,8.37
2018-07-06T22:34:56.579Z,5.53
2018-07-06T22:37:24.802Z,7.97
2018-07-06T22:39:52.954Z,7.17
2018-07-06T22:42:21.204Z,5.33
2018-07-06T22:44:49.547Z,6.83
2018-07-06T22:47:17.890Z,4.30
2018-07-06T22:49:46.008Z,11.67
2018-07-06T22:52:14.103Z,7.27
2018-07-06T22:54:42.273Z,5.03
2018-07-06T22:57:10.357Z,6.00
2018-07-06T22:59:38.432Z,5.40
2018-07-06T23:02:06.822Z,5.20
2018-07-06T23:04:34.891Z,7.43
2018-07-06T23:07:03.041Z,5.37
2018-07-06T23:09:31.114Z,6.10
2018-07-06T23:11:59.174Z,4.63
2018-07-06T23:14:27.379Z,5.50
2018-07-06T23:16:55.442Z,5.67
2018-07-06T23:19:23.779Z,5.70
2018-07-06T23:21:51.875Z,7.17
2018-07-06T23:24:20.114Z,6.70
2018-07-06T23:26:48.219Z,4.90
2018-07-06T23:29:16.290Z,4.13
2018-07-06T23:31:44.380Z,5.77
2018-07-06T23:34:12.447Z,7.23
2018-07-06T23:36:40.519Z,4.33
2018-07-06T23:39:08.818Z,5.10
2018-07-06T23:41:37.061Z,4.17
2018-07-06T23:44:05.334Z,4.73
2018-07-06T23:46:33.479Z,5.10
2018-07-06T23:49:01.838Z,6.17
2018-07-06T23:51:29.880Z,5.47
2018-07-06T23:53:58.060Z,4.43
2018-07-06T23:56:26.377Z,4.43
2018-07-06T23:58:54.426Z,7.13
